createdAt,value
2019-03-26T00:02:55.923Z,19.33
2019-03-26T00:06:00.839Z,20.07
2019-03-26T00:09:08.555Z,18.23
2019-03-26T00:12:13.488Z,17.70
2019-03-26T00:15:18.454Z,16.97
2019-03-26T00:18:23.372Z,19.93
2019-03-26T00:21:28.211Z,16.67
2019-03-26T00:24:34.090Z,18.50
2019-03-26T00:27:38.990Z,18.33
2019-03-26T00:30:43.916Z,17.57
2019-03-26T00:33:48.749Z,17.77
2019-03-26T00:36:53.663Z,16.63
2019-03-26T00:39:58.487Z,19.50
2019-03-26T00:43:03.415Z,19.27
2019-03-26T00:46:08.392Z,18.83
2019-03-26T00:49:13.245Z,19.00
2019-03-26T00:52:18.059Z,19.40
2019-03-26T00:55:23.348Z,17.60
2019-03-26T00:58:28.369Z,16.20
2019-03-26T01:01:33.278Z,16.83
2019-03-26T01:04:38.170Z,17.40
2019-03-26T01:07:43.459Z,15.93
2019-03-26T01:10:48.363Z,14.87
2019-03-26T01:13:53.267Z,15.40
2019-03-26T01:16:58.219Z,15.20
2019-03-26T01:20:03.157Z,15.37
2019-03-26T01:23:08.059Z,15.37
2019-03-26T01:26:12.967Z,14.40
2019-03-26T01:29:17.822Z,14.60
2019-03-26T01:32:22.726Z,14.20
2019-03-26T01:35:27.700Z,14.10
2019-03-26T01:38:33.059Z,14.50
2019-03-26T01:41:37.958Z,14.43
2019-03-26T01:44:42.873Z,14.10
2019-03-26T01:47:47.807Z,14.33
2019-03-26T01:50:52.720Z,14.00
2019-03-26T01:53:57.578Z,13.97
2019-03-26T01:57:02.476Z,13.80
2019-03-26T02:00:07.736Z,13.23
2019-03-26T02:03:12.652Z,12.97
2019-03-26T02:06:17.447Z,13.63
2019-03-26T02:09:22.290Z,13.03
2019-03-26T02:12:27.190Z,12.60
2019-03-26T02:15:34.046Z,12.93
2019-03-26T02:18:38.999Z,13.43
2019-03-26T02:21:43.901Z,12.37
2019-03-26T02:24:48.819Z,13.03
2019-03-26T02:27:53.751Z,13.33
2019-03-26T02:30:58.670Z,14.73
2019-03-26T02:34:03.602Z,14.40
2019-03-26T02:37:08.401Z,13.00
2019-03-26T02:40:13.331Z,14.00
2019-03-26T02:43:18.216Z,14.17
2019-03-26T02:46:23.157Z,12.83
2019-03-26T02:49:28.180Z,13.10
2019-03-26T02:52:33.097Z,13.03
2019-03-26T02:55:38.017Z,13.33
2019-03-26T02:58:42.931Z,13.43
2019-03-26T03:01:47.741Z,13.17
2019-03-26T03:04:52.667Z,13.43
2019-03-26T03:07:57.647Z,13.77
2019-03-26T03:11:02.984Z,13.30
2019-03-26T03:14:07.861Z,12.87
2019-03-26T03:17:12.839Z,12.30
2019-03-26T03:20:17.811Z,13.10
2019-03-26T03:23:22.742Z,12.57
2019-03-26T03:26:27.664Z,13.43
2019-03-26T03:29:32.532Z,13.10
2019-03-26T03:32:37.469Z,14.47
2019-03-26T03:35:52.193Z,13.67
2019-03-26T03:38:48.906Z,14.00
2019-03-26T03:41:53.925Z,14.90
2019-03-26T03:44:58.799Z,16.57
2019-03-26T03:48:03.952Z,16.77
2019-03-26T03:51:09.709Z,17.07
2019-03-26T03:54:15.437Z,19.47
2019-03-26T03:57:22.320Z,20.93
2019-03-26T04:00:38.667Z,21.73
2019-03-26T04:03:43.558Z,22.37
2019-03-26T04:06:48.473Z,26.87
2019-03-26T04:09:53.364Z,27.83
2019-03-26T04:12:58.275Z,25.70
2019-03-26T04:16:03.165Z,28.60
2019-03-26T04:19:08.066Z,25.73
2019-03-26T04:22:13.027Z,25.13
2019-03-26T04:25:17.937Z,25.20
2019-03-26T04:28:22.828Z,26.47
2019-03-26T04:31:27.763Z,24.63
2019-03-26T04:34:32.656Z,24.07
2019-03-26T04:37:37.570Z,25.07
2019-03-26T04:40:42.455Z,26.93
2019-03-26T04:43:47.480Z,26.93
2019-03-26T04:46:52.387Z,26.13
2019-03-26T04:49:57.623Z,25.30
2019-03-26T04:53:02.487Z,23.87
2019-03-26T04:56:07.320Z,24.37
2019-03-26T04:59:12.127Z,22.37
2019-03-26T05:02:16.977Z,22.03
2019-03-26T05:05:21.821Z,21.93
2019-03-26T05:08:26.743Z,22.47
2019-03-26T05:11:31.644Z,23.77
2019-03-26T05:14:36.585Z,23.27
2019-03-26T05:17:41.444Z,21.57
2019-03-26T05:20:46.425Z,21.47
2019-03-26T05:23:51.963Z,20.73
2019-03-26T05:26:57.087Z,20.10
2019-03-26T05:30:01.919Z,20.57
2019-03-26T05:33:06.750Z,19.90
2019-03-26T05:36:11.646Z,18.37
2019-03-26T05:39:16.509Z,18.00
2019-03-26T05:42:21.412Z,17.73
2019-03-26T05:45:26.261Z,17.03
2019-03-26T05:48:31.186Z,18.67
2019-03-26T05:51:36.124Z,17.00
2019-03-26T05:54:41.096Z,17.50
2019-03-26T05:57:46.118Z,17.67
2019-03-26T06:00:51.033Z,17.23
2019-03-26T06:03:55.956Z,17.80
2019-03-26T06:07:05.002Z,17.70
2019-03-26T06:10:09.051Z,17.03
2019-03-26T06:13:13.964Z,18.00
2019-03-26T06:16:18.883Z,16.73
2019-03-26T06:19:23.805Z,19.10
2019-03-26T06:22:28.816Z,18.10
2019-03-26T06:25:33.702Z,18.47
2019-03-26T06:28:39.753Z,19.10
2019-03-26T06:31:44.664Z,19.20
2019-03-26T06:34:49.596Z,20.20
2019-03-26T06:37:54.421Z,20.27
2019-03-26T06:40:59.329Z,21.10
2019-03-26T06:44:04.228Z,20.57
2019-03-26T06:47:09.067Z,24.07
2019-03-26T06:50:13.971Z,23.27
2019-03-26T06:53:19.079Z,22.60
2019-03-26T06:56:24.002Z,21.90
2019-03-26T06:59:28.920Z,22.07
2019-03-26T07:02:33.800Z,23.43
2019-03-26T07:05:38.653Z,21.37
2019-03-26T07:08:43.555Z,21.57
2019-03-26T07:11:48.566Z,21.27
2019-03-26T07:14:53.576Z,20.77
2019-03-26T07:17:58.486Z,18.93
2019-03-26T07:21:03.402Z,17.73
2019-03-26T07:24:08.359Z,16.83
2019-03-26T07:27:13.368Z,15.97
2019-03-26T07:30:35.867Z,15.37
2019-03-26T07:33:40.698Z,15.63
2019-03-26T07:36:45.666Z,15.33
2019-03-26T07:39:50.491Z,15.10
2019-03-26T07:42:55.331Z,16.17
2019-03-26T07:46:00.147Z,15.13
2019-03-26T07:49:05.099Z,16.33
2019-03-26T07:52:09.938Z,14.17
2019-03-26T07:55:14.866Z,14.43
2019-03-26T07:58:19.740Z,15.10
2019-03-26T08:01:24.589Z,14.33
2019-03-26T08:04:29.411Z,13.20
2019-03-26T08:07:34.264Z,12.83
2019-03-26T08:10:39.083Z,11.47
2019-03-26T08:13:44.021Z,10.00
2019-03-26T08:16:48.867Z,9.37
2019-03-26T08:19:53.772Z,8.13
2019-03-26T08:22:58.595Z,7.43
2019-03-26T08:26:03.851Z,6.97
2019-03-26T08:29:08.743Z,7.43
2019-03-26T08:32:13.679Z,6.03
2019-03-26T08:35:18.575Z,6.50
2019-03-26T08:38:23.420Z,6.57
2019-03-26T08:41:28.292Z,6.00
2019-03-26T08:44:33.145Z,7.30
2019-03-26T08:47:38.035Z,7.33
2019-03-26T08:50:42.871Z,6.43
2019-03-26T08:53:47.747Z,5.97
2019-03-26T08:56:52.619Z,5.90
2019-03-26T08:59:57.435Z,5.60
2019-03-26T09:03:02.208Z,5.87
2019-03-26T09:06:07.288Z,6.37
2019-03-26T09:09:12.212Z,7.10
2019-03-26T09:12:17.133Z,6.97
2019-03-26T09:15:22.049Z,11.27
2019-03-26T09:18:26.947Z,10.43
2019-03-26T09:21:32.736Z,10.33
2019-03-26T09:24:37.707Z,10.43
2019-03-26T09:27:42.653Z,10.93
2019-03-26T09:30:47.539Z,9.70
2019-03-26T09:33:52.508Z,9.73
2019-03-26T09:36:57.318Z,9.77
2019-03-26T09:40:02.169Z,9.70
2019-03-26T09:43:07.088Z,9.57
2019-03-26T09:46:12.009Z,10.20
2019-03-26T09:49:16.896Z,9.77
2019-03-26T09:52:21.737Z,9.03
2019-03-26T09:55:26.700Z,9.17
2019-03-26T09:58:31.585Z,10.27
2019-03-26T10:01:36.472Z,8.73
2019-03-26T10:04:41.340Z,8.63
2019-03-26T10:07:46.281Z,7.50
2019-03-26T10:10:51.173Z,9.47
2019-03-26T10:13:56.043Z,8.60
2019-03-26T10:17:00.816Z,9.37
2019-03-26T10:20:07.842Z,8.97
2019-03-26T10:23:13.278Z,8.83
2019-03-26T10:26:18.124Z,9.93
2019-03-26T10:29:30.171Z,10.17
2019-03-26T10:32:30.107Z,8.37
2019-03-26T10:35:36.188Z,9.37
2019-03-26T10:38:41.073Z,9.00
2019-03-26T10:41:45.994Z,7.90
2019-03-26T10:44:50.897Z,8.00
2019-03-26T10:47:55.832Z,7.87
2019-03-26T10:51:00.773Z,7.23
2019-03-26T10:54:05.689Z,7.67
2019-03-26T10:57:10.496Z,6.93
2019-03-26T11:00:15.988Z,7.47
2019-03-26T11:03:20.835Z,7.00
2019-03-26T11:06:25.706Z,6.23
2019-03-26T11:09:30.636Z,6.47
2019-03-26T11:12:35.491Z,6.30
2019-03-26T11:15:40.381Z,5.90
2019-03-26T11:18:45.297Z,5.93
2019-03-26T11:21:50.171Z,6.40
2019-03-26T11:24:55.033Z,4.97
2019-03-26T11:27:59.937Z,5.50
2019-03-26T11:31:04.851Z,5.13
2019-03-26T11:34:09.684Z,5.63
2019-03-26T11:37:14.563Z,4.83
2019-03-26T11:40:19.554Z,5.07
2019-03-26T11:43:24.387Z,4.40
2019-03-26T11:46:29.219Z,4.63
2019-03-26T11:49:34.076Z,5.20
2019-03-26T11:52:38.970Z,4.93
2019-03-26T11:55:44.070Z,4.50
2019-03-26T11:58:48.943Z,4.27
2019-03-26T12:01:53.847Z,4.30
2019-03-26T12:04:58.650Z,4.30
2019-03-26T12:08:05.478Z,5.40
2019-03-26T12:11:10.334Z,4.93
2019-03-26T12:14:15.330Z,4.67
2019-03-26T12:17:20.235Z,5.07
2019-03-26T12:20:25.213Z,5.00
2019-03-26T12:23:30.108Z,4.60
2019-03-26T12:26:35.142Z,4.97
2019-03-26T12:29:40.028Z,5.70
2019-03-26T12:32:45.012Z,5.23
2019-03-26T12:35:49.926Z,5.27
2019-03-26T12:38:54.920Z,5.70
2019-03-26T12:41:59.845Z,5.40
2019-03-26T12:45:07.011Z,5.27
2019-03-26T12:48:11.663Z,5.23
2019-03-26T12:51:16.545Z,5.17
2019-03-26T12:54:21.433Z,4.30
2019-03-26T12:57:26.340Z,4.60
2019-03-26T13:00:34.162Z,4.60
2019-03-26T13:03:39.273Z,4.63
2019-03-26T13:06:44.175Z,4.33
2019-03-26T13:09:49.106Z,4.47
2019-03-26T13:12:54.003Z,4.73
2019-03-26T13:15:59.269Z,5.43
2019-03-26T13:19:04.274Z,5.27
2019-03-26T13:22:09.213Z,5.90
2019-03-26T13:25:14.061Z,5.07
2019-03-26T13:28:18.987Z,5.50
2019-03-26T13:31:24.951Z,5.00
2019-03-26T13:34:29.902Z,5.73
2019-03-26T13:37:34.847Z,5.63
2019-03-26T13:40:39.795Z,5.50
2019-03-26T13:43:44.765Z,5.33
2019-03-26T13:46:49.712Z,5.00
2019-03-26T13:49:54.628Z,5.03
2019-03-26T13:52:59.603Z,5.37
2019-03-26T13:56:04.599Z,5.50
2019-03-26T13:59:09.485Z,5.17
2019-03-26T14:02:14.385Z,5.20
2019-03-26T14:05:26.376Z,5.37
2019-03-26T14:08:31.264Z,4.73
2019-03-26T14:11:36.145Z,4.83
2019-03-26T14:14:41.063Z,5.23
2019-03-26T14:17:45.991Z,4.00
2019-03-26T14:20:51.040Z,4.30
2019-03-26T14:23:55.987Z,4.40
2019-03-26T14:27:00.997Z,3.60
2019-03-26T14:30:06.938Z,3.27
2019-03-26T14:33:11.846Z,2.80
2019-03-26T14:36:16.781Z,3.20
2019-03-26T14:39:21.680Z,2.80
2019-03-26T14:42:26.666Z,3.13
2019-03-26T14:45:31.562Z,2.80
2019-03-26T14:48:36.498Z,2.80
2019-03-26T14:51:41.407Z,3.03
2019-03-26T14:54:46.350Z,3.13
2019-03-26T14:57:51.244Z,2.83
2019-03-26T15:00:59.472Z,2.73
2019-03-26T15:04:02.676Z,3.20
2019-03-26T15:07:07.613Z,3.50
2019-03-26T15:10:12.718Z,4.00
2019-03-26T15:13:17.644Z,4.57
2019-03-26T15:16:22.548Z,4.30
2019-03-26T15:19:27.418Z,4.80
2019-03-26T15:22:32.335Z,4.03
2019-03-26T15:25:37.282Z,5.40
2019-03-26T15:28:42.184Z,6.07
2019-03-26T15:31:47.082Z,5.60
2019-03-26T15:34:52.024Z,5.03
2019-03-26T15:37:56.966Z,5.13
2019-03-26T15:41:01.874Z,4.83
2019-03-26T15:44:06.803Z,5.57
2019-03-26T15:47:11.755Z,5.00
2019-03-26T15:50:39.370Z,4.87
2019-03-26T15:53:44.259Z,6.13
2019-03-26T15:56:49.304Z,5.43
2019-03-26T15:59:54.134Z,6.23
2019-03-26T16:02:59.073Z,5.33
2019-03-26T16:06:04.202Z,4.80
2019-03-26T16:09:09.712Z,4.23
2019-03-26T16:12:14.600Z,4.27
2019-03-26T16:15:19.470Z,4.20
2019-03-26T16:18:24.303Z,4.03
2019-03-26T16:21:29.275Z,4.33
2019-03-26T16:24:34.287Z,4.40
2019-03-26T16:27:39.288Z,4.17
2019-03-26T16:30:44.172Z,4.27
2019-03-26T16:33:49.087Z,4.57
2019-03-26T16:36:59.256Z,4.17
2019-03-26T16:40:00.533Z,4.23
2019-03-26T16:43:05.415Z,4.30
2019-03-26T16:46:10.352Z,3.97
2019-03-26T16:49:15.195Z,4.33
2019-03-26T16:52:20.117Z,4.57
2019-03-26T16:55:25.058Z,4.73
2019-03-26T16:58:30.057Z,4.50
2019-03-26T17:01:34.973Z,5.03
2019-03-26T17:04:39.939Z,5.87
2019-03-26T17:07:44.875Z,6.57
2019-03-26T17:10:49.820Z,6.43
2019-03-26T17:13:54.701Z,6.20
2019-03-26T17:16:59.588Z,6.03
2019-03-26T17:20:05.001Z,5.80
2019-03-26T17:23:09.972Z,6.57
2019-03-26T17:26:15.580Z,6.47
2019-03-26T17:29:20.686Z,6.47
2019-03-26T17:32:25.694Z,7.10
2019-03-26T17:35:30.651Z,7.37
2019-03-26T17:38:35.600Z,7.33
2019-03-26T17:41:42.467Z,7.73
2019-03-26T17:44:47.357Z,8.10
2019-03-26T17:47:52.307Z,6.97
2019-03-26T17:50:57.242Z,7.80
2019-03-26T17:54:02.204Z,6.80
2019-03-26T17:57:07.140Z,6.57
2019-03-26T18:00:18.679Z,6.47
2019-03-26T18:03:26.797Z,7.30
2019-03-26T18:06:31.853Z,6.90
2019-03-26T18:09:36.894Z,9.27
2019-03-26T18:12:42.554Z,13.60
2019-03-26T18:15:49.010Z,8.87
2019-03-26T18:18:55.069Z,7.90
2019-03-26T18:22:00.089Z,6.97
2019-03-26T18:25:05.435Z,9.03
2019-03-26T18:28:10.402Z,7.93
2019-03-26T18:31:16.335Z,8.83
2019-03-26T18:34:21.365Z,8.53
2019-03-26T18:37:28.047Z,7.90
2019-03-26T18:40:34.184Z,8.07
2019-03-26T18:43:39.279Z,7.70
2019-03-26T18:46:45.307Z,8.20
2019-03-26T18:49:50.223Z,8.40
2019-03-26T18:52:55.149Z,8.70
2019-03-26T18:56:00.026Z,7.87
2019-03-26T18:59:04.983Z,7.97
2019-03-26T19:02:10.868Z,8.70
2019-03-26T19:05:15.714Z,9.43
2019-03-26T19:08:20.716Z,9.23
2019-03-26T19:11:25.742Z,8.63
2019-03-26T19:14:30.921Z,8.13
2019-03-26T19:17:35.867Z,7.80
2019-03-26T19:20:41.526Z,7.30
2019-03-26T19:23:46.699Z,6.93
2019-03-26T19:26:51.739Z,6.87
2019-03-26T19:29:56.602Z,6.27
2019-03-26T19:33:01.646Z,7.50
2019-03-26T19:36:06.583Z,6.90
2019-03-26T19:39:11.588Z,7.53
2019-03-26T19:42:16.543Z,8.03
2019-03-26T19:45:21.654Z,8.70
2019-03-26T19:48:26.567Z,8.27
2019-03-26T19:51:31.526Z,8.53
2019-03-26T19:54:36.510Z,8.30
2019-03-26T19:57:41.467Z,8.47
2019-03-26T20:00:47.952Z,8.53
2019-03-26T20:03:52.926Z,9.63
2019-03-26T20:06:57.896Z,9.70
2019-03-26T20:10:02.896Z,10.10
2019-03-26T20:13:07.902Z,10.40
2019-03-26T20:16:13.019Z,9.20
2019-03-26T20:19:18.143Z,8.87
2019-03-26T20:22:23.075Z,8.93
2019-03-26T20:25:28.014Z,8.97
2019-03-26T20:28:33.072Z,7.60
2019-03-26T20:31:38.090Z,8.07
2019-03-26T20:34:43.632Z,7.87
2019-03-26T20:37:48.739Z,7.77
2019-03-26T20:40:54.724Z,7.40
2019-03-26T20:43:59.808Z,6.77
2019-03-26T20:47:04.807Z,7.70
2019-03-26T20:50:10.679Z,6.53
2019-03-26T20:53:15.805Z,7.27
2019-03-26T20:56:20.730Z,7.80
2019-03-26T20:59:25.657Z,8.37
2019-03-26T21:02:30.939Z,9.10
2019-03-26T21:05:36.314Z,8.67
2019-03-26T21:08:41.189Z,9.40
2019-03-26T21:11:46.121Z,8.17
2019-03-26T21:14:51.023Z,8.33
2019-03-26T21:17:56.021Z,8.40
2019-03-26T21:21:00.945Z,8.97
2019-03-26T21:24:05.888Z,8.17
2019-03-26T21:27:12.585Z,8.47
2019-03-26T21:30:17.704Z,8.67
2019-03-26T21:33:22.613Z,8.93
2019-03-26T21:36:27.547Z,9.37
2019-03-26T21:39:32.491Z,9.00
2019-03-26T21:42:37.503Z,9.10
2019-03-26T21:45:42.493Z,9.20
2019-03-26T21:48:48.820Z,8.83
2019-03-26T21:51:53.732Z,8.47
2019-03-26T21:54:58.645Z,7.83
2019-03-26T21:58:03.536Z,8.67
2019-03-26T22:01:08.532Z,8.33
2019-03-26T22:04:13.353Z,7.73
2019-03-26T22:07:18.251Z,8.00
2019-03-26T22:10:23.191Z,7.43
2019-03-26T22:13:28.120Z,8.50
2019-03-26T22:16:33.018Z,8.13
2019-03-26T22:19:37.943Z,8.13
2019-03-26T22:22:44.640Z,8.47
2019-03-26T22:25:49.560Z,8.07
2019-03-26T22:28:54.459Z,8.10
2019-03-26T22:31:59.382Z,8.93
2019-03-26T22:35:04.302Z,8.20
2019-03-26T22:38:09.236Z,7.03
2019-03-26T22:41:14.112Z,8.70
2019-03-26T22:44:30.777Z,11.53
2019-03-26T22:47:25.611Z,19.90
2019-03-26T22:50:30.655Z,37.30
2019-03-26T22:53:35.588Z,46.70
2019-03-26T22:56:40.532Z,55.47
2019-03-26T22:59:45.442Z,65.50
2019-03-26T23:02:51.947Z,64.47
2019-03-26T23:05:56.927Z,60.10
2019-03-26T23:09:02.644Z,53.73
2019-03-26T23:12:07.547Z,48.10
2019-03-26T23:15:19.633Z,39.70
2019-03-26T23:18:24.526Z,35.77
2019-03-26T23:21:29.459Z,30.30
2019-03-26T23:24:34.495Z,28.17
2019-03-26T23:27:39.432Z,25.57
2019-03-26T23:30:44.311Z,22.10
2019-03-26T23:33:49.238Z,19.00
2019-03-26T23:37:12.984Z,17.23
2019-03-26T23:40:18.483Z,15.23
2019-03-26T23:43:23.370Z,15.60
2019-03-26T23:46:30.213Z,14.20
2019-03-26T23:49:34.803Z,13.03
2019-03-26T23:52:39.652Z,11.53
2019-03-26T23:55:44.591Z,11.27
2019-03-26T23:58:49.519Z,9.53
